createdAt,value
2022-09-26T00:01:35.666Z,100.00
2022-09-26T00:04:07.030Z,100.00
2022-09-26T00:06:34.086Z,100.00
2022-09-26T00:09:00.697Z,100.00
2022-09-26T00:11:30.505Z,100.00
2022-09-26T00:13:59.958Z,100.00
2022-09-26T00:16:26.770Z,100.00
2022-09-26T00:18:55.738Z,100.00
2022-09-26T00:21:23.063Z,100.00
2022-09-26T00:23:50.122Z,100.00
2022-09-26T00:26:18.891Z,100.00
2022-09-26T00:28:46.242Z,100.00
2022-09-26T00:31:19.927Z,100.00
2022-09-26T00:33:47.148Z,100.00
2022-09-26T00:36:13.749Z,100.00
2022-09-26T00:38:40.576Z,100.00
2022-09-26T00:41:07.916Z,100.00
2022-09-26T00:43:49.605Z,100.00
2022-09-26T00:46:31.553Z,100.00
2022-09-26T00:49:14.132Z,100.00
2022-09-26T00:51:46.357Z,100.00
2022-09-26T00:54:16.921Z,100.00
2022-09-26T00:56:47.503Z,100.00
2022-09-26T00:59:25.286Z,100.00
2022-09-26T01:01:53.579Z,100.00
2022-09-26T01:04:21.262Z,100.00
2022-09-26T01:06:49.988Z,100.00
2022-09-26T01:09:17.072Z,100.00
2022-09-26T01:11:44.770Z,100.00
2022-09-26T01:14:12.973Z,100.00
2022-09-26T01:16:42.767Z,100.00
2022-09-26T01:19:29.571Z,100.00
2022-09-26T01:22:21.194Z,100.00
2022-09-26T01:24:54.730Z,100.00
2022-09-26T01:27:39.650Z,100.00
2022-09-26T01:30:35.579Z,100.00
2022-09-26T01:33:17.106Z,100.00
2022-09-26T01:36:14.646Z,100.00
2022-09-26T01:38:50.052Z,100.00
2022-09-26T01:41:38.889Z,100.00
2022-09-26T01:44:32.783Z,100.00
2022-09-26T01:47:22.223Z,100.00
2022-09-26T01:50:13.224Z,100.00
2022-09-26T01:52:48.628Z,100.00
2022-09-26T01:55:24.795Z,100.00
2022-09-26T01:58:03.172Z,100.00
2022-09-26T02:00:30.586Z,100.00
2022-09-26T02:03:00.280Z,100.00
2022-09-26T02:05:35.299Z,100.00
2022-09-26T02:08:17.891Z,100.00
2022-09-26T02:10:51.418Z,100.00
2022-09-26T02:13:33.705Z,100.00
2022-09-26T02:16:08.550Z,100.00
2022-09-26T02:18:43.725Z,100.00
2022-09-26T02:21:15.930Z,100.00
2022-09-26T02:23:42.510Z,100.00
2022-09-26T02:26:09.412Z,100.00
2022-09-26T02:28:36.019Z,100.00
2022-09-26T02:31:07.718Z,100.00
2022-09-26T02:33:35.536Z,100.00
2022-09-26T02:36:07.580Z,100.00
2022-09-26T02:38:34.948Z,100.00
2022-09-26T02:41:22.617Z,100.00
2022-09-26T02:44:00.821Z,100.00
2022-09-26T02:46:56.646Z,100.00
2022-09-26T02:49:43.850Z,100.00
2022-09-26T02:52:19.814Z,100.00
2022-09-26T02:55:17.109Z,100.00
2022-09-26T02:57:49.729Z,100.00
2022-09-26T03:00:27.105Z,100.00
2022-09-26T03:03:13.555Z,100.00
2022-09-26T03:05:44.386Z,100.00
2022-09-26T03:08:37.980Z,100.00
2022-09-26T03:11:07.025Z,100.00
2022-09-26T03:13:40.465Z,100.00
2022-09-26T03:16:09.060Z,100.00
2022-09-26T03:18:53.862Z,100.00
2022-09-26T03:21:21.324Z,100.00
2022-09-26T03:23:49.441Z,100.00
2022-09-26T03:26:24.914Z,100.00
2022-09-26T03:28:52.644Z,100.00
2022-09-26T03:31:23.327Z,100.00
2022-09-26T03:33:50.014Z,100.00
2022-09-26T03:36:16.664Z,100.00
2022-09-26T03:38:43.704Z,100.00
2022-09-26T03:41:11.069Z,100.00
2022-09-26T03:43:37.832Z,100.00
2022-09-26T03:46:08.068Z,100.00
2022-09-26T03:48:34.688Z,100.00
2022-09-26T03:51:06.657Z,100.00
2022-09-26T03:53:35.501Z,100.00
2022-09-26T03:56:11.524Z,100.00
2022-09-26T03:58:38.949Z,100.00
2022-09-26T04:01:14.700Z,100.00
2022-09-26T04:03:47.791Z,100.00
2022-09-26T04:06:20.950Z,100.00
2022-09-26T04:08:49.965Z,100.00
2022-09-26T04:11:20.066Z,100.00
2022-09-26T04:13:51.797Z,100.00
2022-09-26T04:16:20.826Z,100.00
2022-09-26T04:18:48.029Z,100.00
2022-09-26T04:21:15.866Z,100.00
2022-09-26T04:23:44.423Z,100.00
2022-09-26T04:26:15.627Z,100.00
2022-09-26T04:28:45.909Z,100.00
2022-09-26T04:31:13.057Z,100.00
2022-09-26T04:33:40.149Z,100.00
2022-09-26T04:36:12.682Z,100.00
2022-09-26T04:38:39.822Z,100.00
2022-09-26T04:41:08.211Z,100.00
2022-09-26T04:43:35.701Z,100.00
2022-09-26T04:46:06.341Z,100.00
2022-09-26T04:48:33.177Z,100.00
2022-09-26T04:50:59.859Z,100.00
2022-09-26T04:53:26.553Z,100.00
2022-09-26T04:55:54.406Z,100.00
2022-09-26T04:58:21.032Z,100.00
2022-09-26T05:00:49.831Z,100.00
2022-09-26T05:03:17.761Z,100.00
2022-09-26T05:05:47.630Z,100.00
2022-09-26T05:08:15.129Z,100.00
2022-09-26T05:10:42.974Z,100.00
2022-09-26T05:13:10.355Z,100.00
2022-09-26T05:15:39.995Z,100.00
2022-09-26T05:18:07.987Z,100.00
2022-09-26T05:20:35.910Z,100.00
2022-09-26T05:23:04.729Z,100.00
2022-09-26T05:25:56.037Z,100.00
2022-09-26T05:28:24.112Z,100.00
2022-09-26T05:30:51.878Z,100.00
2022-09-26T05:33:19.920Z,100.00
2022-09-26T05:35:51.051Z,100.00
2022-09-26T05:38:17.612Z,100.00
2022-09-26T05:40:56.506Z,100.00
2022-09-26T05:43:28.026Z,100.00
2022-09-26T05:46:04.153Z,100.00
2022-09-26T05:48:32.518Z,100.00
2022-09-26T05:51:19.692Z,100.00
2022-09-26T05:53:47.313Z,100.00
2022-09-26T05:56:18.991Z,100.00
2022-09-26T05:58:46.225Z,100.00
2022-09-26T06:01:17.949Z,100.00
2022-09-26T06:03:46.806Z,100.00
2022-09-26T06:06:15.986Z,100.00
2022-09-26T06:08:43.163Z,100.00
2022-09-26T06:11:13.843Z,100.00
2022-09-26T06:13:45.755Z,100.00
2022-09-26T06:16:18.362Z,100.00
2022-09-26T06:18:47.027Z,100.00
2022-09-26T06:21:16.001Z,100.00
2022-09-26T06:23:43.385Z,100.00
2022-09-26T06:26:14.926Z,100.00
2022-09-26T06:28:41.562Z,100.00
2022-09-26T06:31:13.235Z,100.00
2022-09-26T06:33:39.925Z,100.00
2022-09-26T06:36:09.023Z,100.00
2022-09-26T06:38:36.492Z,100.00
2022-09-26T06:41:03.908Z,100.00
2022-09-26T06:43:31.447Z,100.00
2022-09-26T06:45:58.033Z,100.00
2022-09-26T06:48:27.659Z,100.00
2022-09-26T06:50:57.142Z,100.00
2022-09-26T06:53:23.801Z,100.00
2022-09-26T06:55:50.375Z,100.00
2022-09-26T06:58:17.413Z,100.00
2022-09-26T07:00:44.311Z,100.00
2022-09-26T07:03:13.588Z,100.00
2022-09-26T07:05:40.278Z,100.00
2022-09-26T07:08:07.040Z,100.00
2022-09-26T07:10:37.639Z,100.00
2022-09-26T07:13:09.488Z,100.00
2022-09-26T07:15:37.598Z,100.00
2022-09-26T07:18:06.581Z,100.00
2022-09-26T07:20:36.753Z,100.00
2022-09-26T07:23:05.352Z,97.94
2022-09-26T07:25:33.422Z,98.09
2022-09-26T07:28:01.063Z,98.73
2022-09-26T07:30:28.332Z,98.91
2022-09-26T07:33:05.470Z,96.62
2022-09-26T07:35:34.495Z,95.00
2022-09-26T07:38:01.470Z,94.10
2022-09-26T07:40:28.662Z,93.57
2022-09-26T07:43:18.704Z,94.15
2022-09-26T07:46:04.693Z,92.43
2022-09-26T07:48:50.208Z,92.22
2022-09-26T07:51:16.869Z,92.04
2022-09-26T07:53:43.457Z,89.48
2022-09-26T07:56:12.795Z,89.21
2022-09-26T07:58:43.621Z,88.94
2022-09-26T08:01:14.822Z,87.49
2022-09-26T08:03:43.245Z,88.66
2022-09-26T08:06:10.928Z,86.58
2022-09-26T08:08:37.601Z,86.14
2022-09-26T08:11:05.604Z,84.68
2022-09-26T08:13:33.360Z,82.95
2022-09-26T08:16:06.153Z,85.18
2022-09-26T08:18:34.150Z,86.69
2022-09-26T08:21:08.205Z,83.72
2022-09-26T08:23:35.371Z,84.00
2022-09-26T08:26:08.006Z,82.55
2022-09-26T08:28:35.815Z,81.31
2022-09-26T08:31:03.613Z,76.64
2022-09-26T08:33:32.510Z,74.88
2022-09-26T08:36:07.153Z,73.74
2022-09-26T08:38:35.535Z,72.81
2022-09-26T08:41:33.781Z,72.77
2022-09-26T08:44:06.401Z,72.01
2022-09-26T08:47:02.122Z,73.82
2022-09-26T08:49:28.835Z,71.51
2022-09-26T08:51:59.177Z,72.36
2022-09-26T08:54:34.961Z,72.04
2022-09-26T08:57:14.110Z,72.44
2022-09-26T08:59:42.340Z,69.32
2022-09-26T09:02:39.378Z,70.52
2022-09-26T09:05:18.007Z,67.03
2022-09-26T09:07:50.348Z,67.30
2022-09-26T09:10:19.851Z,65.49
2022-09-26T09:12:49.493Z,64.72
2022-09-26T09:15:42.686Z,64.14
2022-09-26T09:18:46.478Z,65.94
2022-09-26T09:21:45.286Z,65.64
2022-09-26T09:24:22.533Z,65.72
2022-09-26T09:29:53.763Z,65.22
2022-09-26T09:32:25.842Z,64.21
2022-09-26T09:34:54.108Z,62.35
2022-09-26T09:37:25.797Z,62.39
2022-09-26T09:39:53.083Z,64.06
2022-09-26T09:42:39.146Z,61.44
2022-09-26T09:45:16.972Z,59.85
2022-09-26T09:47:43.586Z,59.15
2022-09-26T09:50:50.332Z,59.54
2022-09-26T09:53:45.682Z,57.23
2022-09-26T09:56:25.989Z,59.53
2022-09-26T09:59:03.718Z,57.56
2022-09-26T10:01:47.685Z,57.85
2022-09-26T10:04:23.254Z,56.50
2022-09-26T10:06:51.524Z,58.95
2022-09-26T10:09:35.280Z,56.75
2022-09-26T10:12:16.727Z,56.21
2022-09-26T10:14:54.069Z,56.98
2022-09-26T10:17:22.740Z,56.21
2022-09-26T10:19:49.684Z,57.91
2022-09-26T10:22:29.434Z,58.07
2022-09-26T10:25:14.956Z,58.31
2022-09-26T10:27:48.226Z,58.60
2022-09-26T10:30:18.464Z,58.37
2022-09-26T10:32:56.039Z,57.85
2022-09-26T10:35:26.419Z,58.67
2022-09-26T10:37:55.730Z,58.66
2022-09-26T10:40:47.107Z,59.54
2022-09-26T10:43:31.314Z,62.80
2022-09-26T10:46:19.127Z,62.29
2022-09-26T10:48:49.816Z,62.80
2022-09-26T10:51:48.821Z,64.81
2022-09-26T10:54:19.081Z,65.58
2022-09-26T10:56:50.830Z,66.49
2022-09-26T10:59:24.568Z,65.37
2022-09-26T11:01:56.628Z,65.27
2022-09-26T11:04:46.126Z,65.40
2022-09-26T11:07:26.386Z,63.32
2022-09-26T11:09:57.773Z,64.17
2022-09-26T11:12:28.796Z,64.76
2022-09-26T11:15:01.063Z,66.52
2022-09-26T11:17:45.494Z,63.74
2022-09-26T11:20:36.256Z,62.21
2022-09-26T11:23:29.976Z,62.53
2022-09-26T11:26:11.846Z,59.84
2022-09-26T11:29:03.945Z,60.50
2022-09-26T11:31:36.880Z,56.07
2022-09-26T11:34:08.305Z,57.39
2022-09-26T11:37:12.450Z,55.78
2022-09-26T11:40:17.720Z,57.59
2022-09-26T11:42:55.600Z,57.89
2022-09-26T11:45:25.585Z,58.49
2022-09-26T11:48:08.140Z,61.95
2022-09-26T11:50:45.446Z,62.21
2022-09-26T11:53:40.585Z,62.68
2022-09-26T11:56:16.040Z,61.66
2022-09-26T11:58:59.324Z,62.73
2022-09-26T12:01:43.140Z,61.99
2022-09-26T12:04:28.401Z,60.26
2022-09-26T12:07:02.392Z,59.89
2022-09-26T12:09:45.379Z,59.25
2022-09-26T12:12:35.868Z,57.16
2022-09-26T12:15:21.942Z,58.40
2022-09-26T12:18:03.926Z,57.83
2022-09-26T12:20:30.404Z,57.75
2022-09-26T12:23:28.796Z,58.75
2022-09-26T12:26:01.535Z,59.96
2022-09-26T12:29:08.598Z,59.53
2022-09-26T12:32:14.866Z,59.44
2022-09-26T12:34:52.088Z,58.18
2022-09-26T12:37:39.323Z,58.71
2022-09-26T12:40:21.875Z,58.72
2022-09-26T12:43:14.180Z,59.82
2022-09-26T12:45:55.668Z,60.01
2022-09-26T12:48:35.789Z,59.62
2022-09-26T12:51:22.675Z,60.51
2022-09-26T12:53:58.785Z,60.44
2022-09-26T12:56:43.868Z,60.88
2022-09-26T12:59:19.637Z,60.57
2022-09-26T13:02:27.980Z,60.18
2022-09-26T13:05:27.517Z,60.84
2022-09-26T13:08:04.896Z,61.79
2022-09-26T13:11:03.973Z,61.98
2022-09-26T13:14:15.495Z,61.28
2022-09-26T13:17:06.220Z,60.31
2022-09-26T13:19:51.532Z,61.71
2022-09-26T13:22:31.694Z,60.68
2022-09-26T13:25:20.768Z,60.91
2022-09-26T13:27:58.026Z,59.00
2022-09-26T13:30:35.181Z,59.49
2022-09-26T13:33:13.737Z,60.41
2022-09-26T13:35:43.589Z,60.28
2022-09-26T13:38:30.456Z,60.13
2022-09-26T13:41:22.876Z,59.20
2022-09-26T13:44:03.757Z,60.56
2022-09-26T13:47:03.346Z,61.44
2022-09-26T13:49:33.987Z,60.59
2022-09-26T13:52:34.663Z,61.99
2022-09-26T13:55:11.369Z,62.03
2022-09-26T13:57:50.449Z,61.10
2022-09-26T14:00:29.261Z,60.85
2022-09-26T14:03:14.024Z,58.65
2022-09-26T14:05:46.976Z,57.80
2022-09-26T14:08:44.811Z,58.36
2022-09-26T14:11:24.617Z,59.08
2022-09-26T14:14:19.341Z,58.26
2022-09-26T14:16:48.080Z,59.10
2022-09-26T14:19:19.160Z,61.42
2022-09-26T14:22:00.357Z,61.88
2022-09-26T14:24:38.125Z,62.02
2022-09-26T14:27:13.943Z,61.00
2022-09-26T14:29:44.665Z,60.29
2022-09-26T14:32:20.556Z,60.51
2022-09-26T14:34:56.696Z,60.50
2022-09-26T14:37:39.145Z,60.04
2022-09-26T14:40:16.944Z,59.75
2022-09-26T14:42:43.568Z,59.53
2022-09-26T14:45:24.505Z,59.34
2022-09-26T14:48:09.040Z,59.04
2022-09-26T14:51:02.051Z,59.98
2022-09-26T14:53:42.616Z,60.43
2022-09-26T14:56:29.536Z,59.94
2022-09-26T14:59:34.296Z,59.87
2022-09-26T15:02:21.941Z,60.76
2022-09-26T15:05:00.428Z,61.03
2022-09-26T15:07:43.355Z,60.79
2022-09-26T15:10:13.680Z,60.21
2022-09-26T15:12:48.299Z,62.04
2022-09-26T15:15:30.294Z,61.39
2022-09-26T15:18:08.141Z,61.69
2022-09-26T15:20:40.324Z,60.84
2022-09-26T15:23:45.141Z,62.99
2022-09-26T15:26:12.020Z,61.02
2022-09-26T15:28:38.880Z,61.24
2022-09-26T15:31:21.814Z,61.27
2022-09-26T15:33:56.193Z,62.52
2022-09-26T15:36:23.041Z,62.33
2022-09-26T15:38:49.792Z,62.08
2022-09-26T15:41:39.201Z,62.14
2022-09-26T15:44:07.464Z,62.88
2022-09-26T15:46:34.243Z,63.00
2022-09-26T15:49:01.013Z,63.16
2022-09-26T15:51:39.323Z,63.13
2022-09-26T15:54:12.761Z,65.26
2022-09-26T15:56:43.691Z,65.67
2022-09-26T15:59:19.356Z,65.24
2022-09-26T16:01:50.338Z,66.80
2022-09-26T16:04:22.106Z,67.06
2022-09-26T16:06:58.071Z,66.57
2022-09-26T16:09:37.771Z,67.92
2022-09-26T16:12:19.253Z,67.09
2022-09-26T16:15:12.557Z,66.97
2022-09-26T16:17:49.641Z,67.95
2022-09-26T16:20:16.258Z,68.39
2022-09-26T16:22:52.533Z,68.29
2022-09-26T16:25:19.247Z,69.40
2022-09-26T16:27:49.427Z,69.43
2022-09-26T16:30:27.926Z,69.81
2022-09-26T16:33:06.911Z,70.56
2022-09-26T16:35:43.733Z,70.82
2022-09-26T16:38:33.769Z,70.42
2022-09-26T16:41:31.372Z,72.13
2022-09-26T16:44:25.194Z,73.44
2022-09-26T16:46:56.010Z,72.32
2022-09-26T16:49:51.788Z,73.15
2022-09-26T16:52:25.206Z,74.75
2022-09-26T16:54:53.248Z,74.43
2022-09-26T16:57:27.160Z,76.22
2022-09-26T17:00:14.261Z,76.30
2022-09-26T17:02:41.261Z,78.02
2022-09-26T17:05:18.629Z,79.14
2022-09-26T17:07:46.950Z,78.02
2022-09-26T17:10:13.753Z,77.79
2022-09-26T17:12:40.634Z,78.44
2022-09-26T17:15:09.300Z,77.08
2022-09-26T17:17:35.949Z,78.22
2022-09-26T17:20:03.434Z,78.34
2022-09-26T17:22:30.050Z,77.22
2022-09-26T17:24:56.812Z,78.27
2022-09-26T17:27:27.333Z,77.85
2022-09-26T17:30:00.339Z,78.01
2022-09-26T17:32:33.695Z,77.66
2022-09-26T17:35:12.297Z,77.45
2022-09-26T17:37:39.156Z,78.51
2022-09-26T17:40:14.021Z,77.92
2022-09-26T17:42:40.891Z,78.15
2022-09-26T17:45:08.358Z,78.00
2022-09-26T17:47:35.218Z,78.68
2022-09-26T17:50:02.297Z,78.37
2022-09-26T17:52:32.187Z,77.91
2022-09-26T17:55:04.209Z,76.81
2022-09-26T17:57:38.294Z,77.85
2022-09-26T18:00:11.308Z,76.88
2022-09-26T18:02:44.629Z,77.76
2022-09-26T18:05:21.104Z,77.51
2022-09-26T18:07:52.009Z,77.73
2022-09-26T18:10:25.082Z,76.70
2022-09-26T18:12:57.585Z,77.00
2022-09-26T18:15:25.680Z,75.62
2022-09-26T18:17:53.953Z,75.05
2022-09-26T18:20:24.701Z,75.72
2022-09-26T18:22:52.328Z,76.15
2022-09-26T18:25:22.365Z,75.72
2022-09-26T18:27:52.981Z,75.47
2022-09-26T18:30:23.841Z,75.66
2022-09-26T18:32:54.103Z,76.04
2022-09-26T18:35:27.665Z,76.44
2022-09-26T18:37:55.976Z,76.54
2022-09-26T18:40:28.730Z,76.91
2022-09-26T18:42:57.839Z,76.99
2022-09-26T18:45:29.944Z,77.17
2022-09-26T18:47:57.117Z,76.13
2022-09-26T18:50:31.829Z,76.95
2022-09-26T18:52:58.569Z,77.48
2022-09-26T18:55:44.868Z,77.53
2022-09-26T18:58:27.767Z,77.35
2022-09-26T19:01:00.492Z,77.76
2022-09-26T19:03:31.117Z,77.64
2022-09-26T19:06:05.989Z,78.94
2022-09-26T19:08:35.979Z,78.98
2022-09-26T19:11:16.388Z,79.56
2022-09-26T19:13:45.508Z,79.13
2022-09-26T19:16:12.432Z,79.00
2022-09-26T19:18:40.808Z,79.39
2022-09-26T19:21:28.118Z,80.25
2022-09-26T19:23:55.311Z,80.70
2022-09-26T19:26:34.810Z,80.76
2022-09-26T19:29:01.866Z,81.16
2022-09-26T19:31:29.112Z,80.72
2022-09-26T19:33:56.778Z,81.84
2022-09-26T19:36:23.401Z,81.56
2022-09-26T19:38:50.161Z,82.44
2022-09-26T19:41:16.957Z,82.37
2022-09-26T19:43:43.667Z,82.42
2022-09-26T19:46:17.386Z,81.54
2022-09-26T19:48:44.034Z,82.18
2022-09-26T19:51:14.217Z,82.76
2022-09-26T19:53:41.246Z,83.77
2022-09-26T19:56:09.313Z,83.22
2022-09-26T19:58:36.494Z,83.59
2022-09-26T20:01:14.226Z,83.87
2022-09-26T20:03:41.906Z,84.87
2022-09-26T20:06:26.773Z,84.39
2022-09-26T20:09:01.616Z,84.12
2022-09-26T20:11:28.668Z,84.30
2022-09-26T20:14:13.844Z,84.42
2022-09-26T20:16:42.620Z,84.45
2022-09-26T20:19:16.075Z,84.83
2022-09-26T20:21:42.950Z,85.58
2022-09-26T20:24:16.426Z,84.67
2022-09-26T20:26:43.505Z,84.01
2022-09-26T20:29:14.932Z,83.88
2022-09-26T20:31:44.640Z,84.86
2022-09-26T20:34:11.645Z,85.05
2022-09-26T20:36:42.251Z,84.52
2022-09-26T20:39:16.563Z,85.10
2022-09-26T20:41:44.112Z,84.25
2022-09-26T20:44:15.345Z,84.36
2022-09-26T20:46:53.886Z,84.01
2022-09-26T20:49:28.149Z,84.42
2022-09-26T20:51:57.415Z,84.24
2022-09-26T20:54:32.201Z,84.78
2022-09-26T20:56:59.242Z,85.45
2022-09-26T20:59:27.054Z,85.96
2022-09-26T21:01:55.009Z,85.78
2022-09-26T21:04:30.934Z,86.64
2022-09-26T21:06:58.179Z,87.61
2022-09-26T21:09:24.819Z,87.67
2022-09-26T21:11:51.541Z,88.46
2022-09-26T21:14:19.120Z,89.74
2022-09-26T21:16:51.512Z,88.86
2022-09-26T21:19:24.202Z,90.29
2022-09-26T21:21:53.646Z,90.85
2022-09-26T21:24:29.795Z,90.78
2022-09-26T21:26:56.539Z,92.51
2022-09-26T21:29:23.168Z,93.77
2022-09-26T21:31:52.957Z,93.50
2022-09-26T21:34:24.332Z,94.01
2022-09-26T21:36:54.021Z,94.98
2022-09-26T21:39:21.272Z,94.56
2022-09-26T21:41:54.201Z,93.60
2022-09-26T21:44:43.579Z,94.71
2022-09-26T21:47:10.870Z,94.53
2022-09-26T21:49:37.694Z,95.89
2022-09-26T21:52:12.205Z,94.12
2022-09-26T21:54:43.461Z,94.68
2022-09-26T21:57:17.412Z,93.95
2022-09-26T21:59:45.257Z,94.47
2022-09-26T22:02:11.971Z,95.05
2022-09-26T22:04:38.670Z,94.16
2022-09-26T22:07:05.275Z,94.42
2022-09-26T22:09:31.934Z,94.43
2022-09-26T22:11:59.347Z,94.70
2022-09-26T22:14:26.460Z,94.91
2022-09-26T22:16:53.746Z,94.60
2022-09-26T22:19:20.458Z,94.63
2022-09-26T22:21:47.093Z,94.01
2022-09-26T22:24:13.776Z,94.53
2022-09-26T22:26:40.441Z,94.31
2022-09-26T22:29:07.078Z,94.58
2022-09-26T22:31:33.708Z,94.25
2022-09-26T22:34:00.405Z,94.63
2022-09-26T22:36:27.557Z,93.44
2022-09-26T22:38:54.935Z,92.51
2022-09-26T22:41:21.781Z,93.84
2022-09-26T22:43:49.332Z,93.80
2022-09-26T22:46:16.421Z,94.67
2022-09-26T22:48:48.307Z,93.91
2022-09-26T22:51:16.710Z,94.04
2022-09-26T22:53:44.294Z,93.68
2022-09-26T22:56:13.927Z,92.93
2022-09-26T22:58:46.709Z,92.41
2022-09-26T23:01:16.139Z,92.56
2022-09-26T23:03:42.863Z,92.92
2022-09-26T23:06:10.555Z,92.66
2022-09-26T23:08:37.956Z,92.95
2022-09-26T23:11:06.062Z,93.62
2022-09-26T23:13:35.502Z,94.29
2022-09-26T23:16:10.367Z,94.17
2022-09-26T23:18:39.385Z,94.95
2022-09-26T23:21:14.305Z,96.00
2022-09-26T23:23:43.708Z,96.23
2022-09-26T23:26:21.416Z,96.89
2022-09-26T23:28:49.029Z,97.37
2022-09-26T23:31:16.133Z,97.26
2022-09-26T23:33:43.130Z,97.93
2022-09-26T23:36:10.164Z,97.60
2022-09-26T23:38:38.905Z,96.98
2022-09-26T23:41:06.957Z,96.53
2022-09-26T23:43:34.041Z,95.44
2022-09-26T23:46:00.735Z,96.54
2022-09-26T23:48:27.914Z,96.86
2022-09-26T23:50:54.769Z,96.31
2022-09-26T23:53:22.218Z,97.14
2022-09-26T23:55:48.960Z,96.85
2022-09-26T23:58:15.752Z,96.11
